sensor_id;sensor_type;location;lat;lon;timestamp;P1;durP1;ratioP1;P2;durP2;ratioP2
63438;SDS011;49567;48.958;8.294;2022-10-19T00:01:30;24.67;;;13.97;;
63438;SDS011;49567;48.958;8.294;2022-10-19T00:03:55;22.60;;;13.80;;
63438;SDS011;49567;48.958;8.294;2022-10-19T00:06:22;21.47;;;12.77;;
63438;SDS011;49567;48.958;8.294;2022-10-19T00:08:50;17.70;;;12.57;;
63438;SDS011;49567;48.958;8.294;2022-10-19T00:11:17;16.65;;;12.10;;
63438;SDS011;49567;48.958;8.294;2022-10-19T00:13:42;16.70;;;12.83;;
63438;SDS011;49567;48.958;8.294;2022-10-19T00:16:11;22.33;;;13.07;;
63438;SDS011;49567;48.958;8.294;2022-10-19T00:18:38;18.38;;;12.55;;
63438;SDS011;49567;48.958;8.294;2022-10-19T00:21:06;22.00;;;12.40;;
63438;SDS011;49567;48.958;8.294;2022-10-19T00:23:33;20.02;;;12.75;;
63438;SDS011;49567;48.958;8.294;2022-10-19T00:25:59;16.93;;;12.60;;
63438;SDS011;49567;48.958;8.294;2022-10-19T00:28:24;19.27;;;12.75;;
63438;SDS011;49567;48.958;8.294;2022-10-19T00:30:50;16.92;;;12.23;;
63438;SDS011;49567;48.958;8.294;2022-10-19T00:33:15;19.40;;;12.50;;
63438;SDS011;49567;48.958;8.294;2022-10-19T00:35:49;18.63;;;12.48;;
63438;SDS011;49567;48.958;8.294;2022-10-19T00:38:16;17.57;;;12.53;;
63438;SDS011;49567;48.958;8.294;2022-10-19T00:40:42;21.05;;;13.40;;
63438;SDS011;49567;48.958;8.294;2022-10-19T00:43:12;17.20;;;12.37;;
63438;SDS011;49567;48.958;8.294;2022-10-19T00:45:39;18.15;;;11.98;;
63438;SDS011;49567;48.958;8.294;2022-10-19T00:48:04;16.73;;;12.45;;
63438;SDS011;49567;48.958;8.294;2022-10-19T00:50:30;19.10;;;13.57;;
63438;SDS011;49567;48.958;8.294;2022-10-19T00:52:56;16.33;;;12.93;;
63438;SDS011;49567;48.958;8.294;2022-10-19T00:55:21;17.67;;;13.25;;
63438;SDS011;49567;48.958;8.294;2022-10-19T00:57:48;20.63;;;13.80;;
63438;SDS011;49567;48.958;8.294;2022-10-19T01:00:13;17.23;;;13.25;;
63438;SDS011;49567;48.958;8.294;2022-10-19T01:02:39;15.93;;;13.07;;
63438;SDS011;49567;48.958;8.294;2022-10-19T01:05:04;17.57;;;13.37;;
63438;SDS011;49567;48.958;8.294;2022-10-19T01:07:30;19.03;;;13.60;;
63438;SDS011;49567;48.958;8.294;2022-10-19T01:09:56;19.27;;;13.87;;
63438;SDS011;49567;48.958;8.294;2022-10-19T01:12:39;18.27;;;13.30;;
63438;SDS011;49567;48.958;8.294;2022-10-19T01:15:31;17.95;;;12.93;;
63438;SDS011;49567;48.958;8.294;2022-10-19T01:24:42;16.00;;;13.10;;
63438;SDS011;49567;48.958;8.294;2022-10-19T01:27:26;15.70;;;12.77;;
63438;SDS011;49567;48.958;8.294;2022-10-19T01:32:27;17.27;;;12.80;;
63438;SDS011;49567;48.958;8.294;2022-10-19T01:35:15;17.08;;;12.95;;
63438;SDS011;49567;48.958;8.294;2022-10-19T01:37:46;15.57;;;13.63;;
63438;SDS011;49567;48.958;8.294;2022-10-19T01:40:25;15.57;;;13.65;;
63438;SDS011;49567;48.958;8.294;2022-10-19T01:42:58;15.37;;;13.77;;
63438;SDS011;49567;48.958;8.294;2022-10-19T01:45:29;16.70;;;13.95;;
63438;SDS011;49567;48.958;8.294;2022-10-19T01:48:09;18.23;;;14.02;;
63438;SDS011;49567;48.958;8.294;2022-10-19T01:50:44;21.13;;;14.50;;
63438;SDS011;49567;48.958;8.294;2022-10-19T01:53:14;19.58;;;14.30;;
63438;SDS011;49567;48.958;8.294;2022-10-19T01:55:43;18.13;;;14.25;;
63438;SDS011;49567;48.958;8.294;2022-10-19T01:58:13;23.20;;;15.13;;
63438;SDS011;49567;48.958;8.294;2022-10-19T02:00:42;18.50;;;13.60;;
63438;SDS011;49567;48.958;8.294;2022-10-19T02:03:10;17.73;;;14.10;;
63438;SDS011;49567;48.958;8.294;2022-10-19T02:05:37;18.73;;;14.10;;
63438;SDS011;49567;48.958;8.294;2022-10-19T02:08:05;17.48;;;14.68;;
63438;SDS011;49567;48.958;8.294;2022-10-19T02:10:36;19.33;;;14.55;;
63438;SDS011;49567;48.958;8.294;2022-10-19T02:13:03;18.13;;;14.07;;
63438;SDS011;49567;48.958;8.294;2022-10-19T02:15:31;18.85;;;13.73;;
63438;SDS011;49567;48.958;8.294;2022-10-19T02:17:59;19.27;;;14.63;;
63438;SDS011;49567;48.958;8.294;2022-10-19T02:20:26;18.27;;;14.00;;
63438;SDS011;49567;48.958;8.294;2022-10-19T02:22:52;19.20;;;15.00;;
63438;SDS011;49567;48.958;8.294;2022-10-19T02:25:17;20.33;;;14.73;;
63438;SDS011;49567;48.958;8.294;2022-10-19T02:27:43;18.05;;;14.18;;
63438;SDS011;49567;48.958;8.294;2022-10-19T02:30:13;21.92;;;15.00;;
63438;SDS011;49567;48.958;8.294;2022-10-19T02:32:41;17.38;;;14.73;;
63438;SDS011;49567;48.958;8.294;2022-10-19T02:35:07;19.40;;;15.10;;
63438;SDS011;49567;48.958;8.294;2022-10-19T02:37:34;22.33;;;15.60;;
63438;SDS011;49567;48.958;8.294;2022-10-19T02:40:00;29.23;;;16.20;;
63438;SDS011;49567;48.958;8.294;2022-10-19T02:42:47;22.20;;;15.53;;
63438;SDS011;49567;48.958;8.294;2022-10-19T02:45:17;18.73;;;15.80;;
63438;SDS011;49567;48.958;8.294;2022-10-19T02:47:57;21.77;;;16.38;;
63438;SDS011;49567;48.958;8.294;2022-10-19T02:50:26;22.93;;;16.60;;
63438;SDS011;49567;48.958;8.294;2022-10-19T02:52:51;20.70;;;16.43;;
63438;SDS011;49567;48.958;8.294;2022-10-19T02:55:17;23.37;;;17.10;;
63438;SDS011;49567;48.958;8.294;2022-10-19T02:57:42;21.60;;;16.20;;
63438;SDS011;49567;48.958;8.294;2022-10-19T03:00:07;22.97;;;16.73;;
63438;SDS011;49567;48.958;8.294;2022-10-19T03:02:34;24.52;;;16.80;;
63438;SDS011;49567;48.958;8.294;2022-10-19T03:04:59;24.63;;;16.58;;
63438;SDS011;49567;48.958;8.294;2022-10-19T03:07:24;21.17;;;16.43;;
63438;SDS011;49567;48.958;8.294;2022-10-19T03:09:50;25.23;;;16.77;;
63438;SDS011;49567;48.958;8.294;2022-10-19T03:12:15;23.83;;;16.33;;
63438;SDS011;49567;48.958;8.294;2022-10-19T03:14:41;21.50;;;15.80;;
63438;SDS011;49567;48.958;8.294;2022-10-19T03:17:06;24.48;;;16.95;;
63438;SDS011;49567;48.958;8.294;2022-10-19T03:19:33;25.02;;;17.17;;
63438;SDS011;49567;48.958;8.294;2022-10-19T03:21:59;22.48;;;15.85;;
63438;SDS011;49567;48.958;8.294;2022-10-19T03:24:25;23.70;;;17.13;;
63438;SDS011;49567;48.958;8.294;2022-10-19T03:26:50;25.00;;;16.65;;
63438;SDS011;49567;48.958;8.294;2022-10-19T03:29:15;23.30;;;15.57;;
63438;SDS011;49567;48.958;8.294;2022-10-19T03:31:41;22.53;;;15.07;;
63438;SDS011;49567;48.958;8.294;2022-10-19T03:34:06;28.50;;;16.40;;
63438;SDS011;49567;48.958;8.294;2022-10-19T03:36:33;25.37;;;16.33;;
63438;SDS011;49567;48.958;8.294;2022-10-19T03:39:01;24.45;;;16.58;;
63438;SDS011;49567;48.958;8.294;2022-10-19T03:41:37;26.67;;;17.23;;
63438;SDS011;49567;48.958;8.294;2022-10-19T03:44:03;29.97;;;17.27;;
63438;SDS011;49567;48.958;8.294;2022-10-19T03:46:30;27.27;;;17.13;;
63438;SDS011;49567;48.958;8.294;2022-10-19T03:48:56;24.13;;;16.10;;
63438;SDS011;49567;48.958;8.294;2022-10-19T03:51:22;34.70;;;16.30;;
63438;SDS011;49567;48.958;8.294;2022-10-19T03:53:53;23.90;;;15.40;;
63438;SDS011;49567;48.958;8.294;2022-10-19T03:56:20;26.00;;;16.98;;
63438;SDS011;49567;48.958;8.294;2022-10-19T03:58:48;27.40;;;16.27;;
63438;SDS011;49567;48.958;8.294;2022-10-19T04:01:19;25.00;;;15.95;;
63438;SDS011;49567;48.958;8.294;2022-10-19T04:03:46;26.38;;;16.13;;
63438;SDS011;49567;48.958;8.294;2022-10-19T04:06:12;26.55;;;15.93;;
63438;SDS011;49567;48.958;8.294;2022-10-19T04:08:40;26.85;;;15.98;;
63438;SDS011;49567;48.958;8.294;2022-10-19T04:11:12;31.10;;;16.77;;
63438;SDS011;49567;48.958;8.294;2022-10-19T04:13:39;28.75;;;15.88;;
63438;SDS011;49567;48.958;8.294;2022-10-19T04:16:05;23.38;;;15.48;;
63438;SDS011;49567;48.958;8.294;2022-10-19T04:18:31;23.65;;;16.85;;
63438;SDS011;49567;48.958;8.294;2022-10-19T04:20:57;24.67;;;16.15;;
63438;SDS011;49567;48.958;8.294;2022-10-19T04:23:27;25.13;;;15.95;;
63438;SDS011;49567;48.958;8.294;2022-10-19T04:26:00;26.33;;;16.20;;
63438;SDS011;49567;48.958;8.294;2022-10-19T04:28:26;22.55;;;15.85;;
63438;SDS011;49567;48.958;8.294;2022-10-19T04:30:51;23.20;;;15.82;;
63438;SDS011;49567;48.958;8.294;2022-10-19T04:33:17;25.70;;;15.93;;
63438;SDS011;49567;48.958;8.294;2022-10-19T04:35:42;22.30;;;16.17;;
63438;SDS011;49567;48.958;8.294;2022-10-19T04:38:07;22.38;;;14.95;;
63438;SDS011;49567;48.958;8.294;2022-10-19T04:40:34;23.97;;;15.70;;
63438;SDS011;49567;48.958;8.294;2022-10-19T04:43:00;23.95;;;15.40;;
63438;SDS011;49567;48.958;8.294;2022-10-19T04:45:26;26.80;;;16.20;;
63438;SDS011;49567;48.958;8.294;2022-10-19T04:47:51;23.67;;;15.67;;
63438;SDS011;49567;48.958;8.294;2022-10-19T04:50:20;22.63;;;16.50;;
63438;SDS011;49567;48.958;8.294;2022-10-19T04:52:45;23.55;;;15.88;;
63438;SDS011;49567;48.958;8.294;2022-10-19T04:55:11;22.27;;;15.83;;
63438;SDS011;49567;48.958;8.294;2022-10-19T04:57:36;23.73;;;15.50;;
63438;SDS011;49567;48.958;8.294;2022-10-19T05:00:02;25.07;;;15.87;;
63438;SDS011;49567;48.958;8.294;2022-10-19T05:02:28;22.13;;;14.93;;
63438;SDS011;49567;48.958;8.294;2022-10-19T05:04:53;27.10;;;16.37;;
63438;SDS011;49567;48.958;8.294;2022-10-19T05:07:18;23.13;;;15.65;;
63438;SDS011;49567;48.958;8.294;2022-10-19T05:09:44;26.67;;;15.93;;
63438;SDS011;49567;48.958;8.294;2022-10-19T05:12:09;24.30;;;15.50;;
63438;SDS011;49567;48.958;8.294;2022-10-19T05:14:34;27.23;;;16.57;;
63438;SDS011;49567;48.958;8.294;2022-10-19T05:17:00;26.27;;;16.03;;
63438;SDS011;49567;48.958;8.294;2022-10-19T05:19:25;28.20;;;16.57;;
63438;SDS011;49567;48.958;8.294;2022-10-19T05:21:50;26.50;;;17.07;;
63438;SDS011;49567;48.958;8.294;2022-10-19T05:24:15;36.22;;;17.73;;
63438;SDS011;49567;48.958;8.294;2022-10-19T05:26:41;28.47;;;16.73;;
63438;SDS011;49567;48.958;8.294;2022-10-19T05:29:09;26.57;;;15.60;;
63438;SDS011;49567;48.958;8.294;2022-10-19T05:31:35;29.60;;;16.58;;
63438;SDS011;49567;48.958;8.294;2022-10-19T05:34:00;27.90;;;15.30;;
63438;SDS011;49567;48.958;8.294;2022-10-19T05:36:29;27.10;;;15.88;;
63438;SDS011;49567;48.958;8.294;2022-10-19T05:38:59;23.85;;;15.30;;
63438;SDS011;49567;48.958;8.294;2022-10-19T05:41:26;24.13;;;15.35;;
63438;SDS011;49567;48.958;8.294;2022-10-19T05:43:52;25.87;;;15.50;;
63438;SDS011;49567;48.958;8.294;2022-10-19T05:46:22;28.08;;;18.35;;
63438;SDS011;49567;48.958;8.294;2022-10-19T05:48:48;31.15;;;19.00;;
63438;SDS011;49567;48.958;8.294;2022-10-19T05:51:15;30.50;;;20.73;;
63438;SDS011;49567;48.958;8.294;2022-10-19T05:53:42;31.85;;;18.13;;
63438;SDS011;49567;48.958;8.294;2022-10-19T05:56:10;31.45;;;19.02;;
63438;SDS011;49567;48.958;8.294;2022-10-19T05:58:38;29.20;;;18.52;;
63438;SDS011;49567;48.958;8.294;2022-10-19T06:01:03;34.30;;;19.57;;
63438;SDS011;49567;48.958;8.294;2022-10-19T06:03:29;29.35;;;19.35;;
63438;SDS011;49567;48.958;8.294;2022-10-19T06:05:55;30.77;;;19.20;;
63438;SDS011;49567;48.958;8.294;2022-10-19T06:08:21;25.00;;;18.55;;
63438;SDS011;49567;48.958;8.294;2022-10-19T06:10:47;26.65;;;18.23;;
63438;SDS011;49567;48.958;8.294;2022-10-19T06:13:13;26.65;;;17.48;;
63438;SDS011;49567;48.958;8.294;2022-10-19T06:15:40;31.92;;;18.13;;
63438;SDS011;49567;48.958;8.294;2022-10-19T06:18:06;32.50;;;18.43;;
63438;SDS011;49567;48.958;8.294;2022-10-19T06:20:35;27.75;;;18.20;;
63438;SDS011;49567;48.958;8.294;2022-10-19T06:23:02;23.63;;;17.05;;
63438;SDS011;49567;48.958;8.294;2022-10-19T06:25:29;30.30;;;17.95;;
63438;SDS011;49567;48.958;8.294;2022-10-19T06:27:55;30.00;;;16.95;;
63438;SDS011;49567;48.958;8.294;2022-10-19T06:30:20;25.50;;;17.20;;
63438;SDS011;49567;48.958;8.294;2022-10-19T06:32:45;22.27;;;16.13;;
63438;SDS011;49567;48.958;8.294;2022-10-19T06:35:11;27.07;;;16.33;;
63438;SDS011;49567;48.958;8.294;2022-10-19T06:37:36;24.40;;;15.50;;
63438;SDS011;49567;48.958;8.294;2022-10-19T06:40:01;22.33;;;15.27;;
63438;SDS011;49567;48.958;8.294;2022-10-19T06:42:27;24.73;;;16.48;;
63438;SDS011;49567;48.958;8.294;2022-10-19T06:44:52;26.20;;;15.63;;
63438;SDS011;49567;48.958;8.294;2022-10-19T06:47:17;23.40;;;15.57;;
63438;SDS011;49567;48.958;8.294;2022-10-19T06:49:43;23.30;;;15.77;;
63438;SDS011;49567;48.958;8.294;2022-10-19T06:52:09;21.55;;;14.43;;
63438;SDS011;49567;48.958;8.294;2022-10-19T06:54:34;25.23;;;15.17;;
63438;SDS011;49567;48.958;8.294;2022-10-19T06:56:59;23.43;;;13.73;;
63438;SDS011;49567;48.958;8.294;2022-10-19T06:59:25;20.87;;;14.23;;
63438;SDS011;49567;48.958;8.294;2022-10-19T07:01:50;19.90;;;13.50;;
63438;SDS011;49567;48.958;8.294;2022-10-19T07:04:15;23.13;;;13.30;;
63438;SDS011;49567;48.958;8.294;2022-10-19T07:06:40;17.03;;;12.37;;
63438;SDS011;49567;48.958;8.294;2022-10-19T07:09:06;22.87;;;13.07;;
63438;SDS011;49567;48.958;8.294;2022-10-19T07:11:31;20.17;;;12.83;;
63438;SDS011;49567;48.958;8.294;2022-10-19T07:13:56;23.23;;;13.93;;
63438;SDS011;49567;48.958;8.294;2022-10-19T07:16:22;21.50;;;12.80;;
63438;SDS011;49567;48.958;8.294;2022-10-19T07:18:50;20.17;;;12.80;;
63438;SDS011;49567;48.958;8.294;2022-10-19T07:21:24;22.25;;;13.52;;
63438;SDS011;49567;48.958;8.294;2022-10-19T07:23:49;24.27;;;13.27;;
63438;SDS011;49567;48.958;8.294;2022-10-19T07:26:16;19.15;;;12.73;;
63438;SDS011;49567;48.958;8.294;2022-10-19T07:28:45;20.93;;;12.67;;
63438;SDS011;49567;48.958;8.294;2022-10-19T07:31:13;17.33;;;12.18;;
63438;SDS011;49567;48.958;8.294;2022-10-19T07:33:41;21.88;;;11.90;;
63438;SDS011;49567;48.958;8.294;2022-10-19T07:36:07;15.97;;;11.60;;
63438;SDS011;49567;48.958;8.294;2022-10-19T07:38:34;19.48;;;12.27;;
63438;SDS011;49567;48.958;8.294;2022-10-19T07:43:27;18.10;;;12.52;;
63438;SDS011;49567;48.958;8.294;2022-10-19T07:45:59;19.97;;;12.27;;
63438;SDS011;49567;48.958;8.294;2022-10-19T07:48:25;16.92;;;12.27;;
63438;SDS011;49567;48.958;8.294;2022-10-19T07:50:51;24.15;;;13.00;;
63438;SDS011;49567;48.958;8.294;2022-10-19T07:53:16;16.63;;;12.63;;
63438;SDS011;49567;48.958;8.294;2022-10-19T07:55:41;17.30;;;11.60;;
63438;SDS011;49567;48.958;8.294;2022-10-19T07:58:06;19.87;;;12.53;;
63438;SDS011;49567;48.958;8.294;2022-10-19T08:00:32;15.85;;;11.30;;
63438;SDS011;49567;48.958;8.294;2022-10-19T08:02:57;15.97;;;12.50;;
63438;SDS011;49567;48.958;8.294;2022-10-19T08:05:22;17.40;;;12.60;;
63438;SDS011;49567;48.958;8.294;2022-10-19T08:07:47;16.10;;;11.57;;
63438;SDS011;49567;48.958;8.294;2022-10-19T08:10:13;15.82;;;11.18;;
63438;SDS011;49567;48.958;8.294;2022-10-19T08:12:38;14.63;;;10.67;;
63438;SDS011;49567;48.958;8.294;2022-10-19T08:15:03;16.77;;;10.70;;
63438;SDS011;49567;48.958;8.294;2022-10-19T08:17:31;15.10;;;10.68;;
63438;SDS011;49567;48.958;8.294;2022-10-19T08:19:58;13.02;;;10.60;;
63438;SDS011;49567;48.958;8.294;2022-10-19T08:22:24;18.17;;;10.50;;
63438;SDS011;49567;48.958;8.294;2022-10-19T08:24:49;18.53;;;11.17;;
63438;SDS011;49567;48.958;8.294;2022-10-19T08:27:14;12.50;;;10.83;;
63438;SDS011;49567;48.958;8.294;2022-10-19T08:29:40;17.07;;;11.80;;
63438;SDS011;49567;48.958;8.294;2022-10-19T08:32:05;24.27;;;14.60;;
63438;SDS011;49567;48.958;8.294;2022-10-19T08:34:30;18.97;;;12.17;;
63438;SDS011;49567;48.958;8.294;2022-10-19T08:36:57;21.27;;;13.97;;
63438;SDS011;49567;48.958;8.294;2022-10-19T08:39:22;22.30;;;14.93;;
63438;SDS011;49567;48.958;8.294;2022-10-19T08:45:01;20.70;;;14.35;;
63438;SDS011;49567;48.958;8.294;2022-10-19T08:48:32;19.60;;;12.55;;
63438;SDS011;49567;48.958;8.294;2022-10-19T08:50:38;19.67;;;14.27;;
63438;SDS011;49567;48.958;8.294;2022-10-19T08:53:07;29.02;;;14.30;;
63438;SDS011;49567;48.958;8.294;2022-10-19T09:01:42;13.52;;;10.75;;
63438;SDS011;49567;48.958;8.294;2022-10-19T09:04:30;21.33;;;14.55;;
63438;SDS011;49567;48.958;8.294;2022-10-19T09:07:20;12.27;;;10.97;;
63438;SDS011;49567;48.958;8.294;2022-10-19T09:09:50;12.07;;;10.00;;
63438;SDS011;49567;48.958;8.294;2022-10-19T09:12:23;13.55;;;9.70;;
63438;SDS011;49567;48.958;8.294;2022-10-19T09:15:00;12.68;;;10.25;;
63438;SDS011;49567;48.958;8.294;2022-10-19T09:17:31;10.90;;;9.47;;
63438;SDS011;49567;48.958;8.294;2022-10-19T09:20:00;15.38;;;9.75;;
63438;SDS011;49567;48.958;8.294;2022-10-19T09:22:37;16.65;;;9.77;;
63438;SDS011;49567;48.958;8.294;2022-10-19T09:25:09;16.95;;;9.90;;
63438;SDS011;49567;48.958;8.294;2022-10-19T09:27:44;14.60;;;9.48;;
63438;SDS011;49567;48.958;8.294;2022-10-19T09:30:16;10.55;;;9.05;;
63438;SDS011;49567;48.958;8.294;2022-10-19T09:32:42;13.32;;;9.50;;
63438;SDS011;49567;48.958;8.294;2022-10-19T09:35:21;10.70;;;8.83;;
63438;SDS011;49567;48.958;8.294;2022-10-19T09:37:52;9.83;;;8.83;;
63438;SDS011;49567;48.958;8.294;2022-10-19T09:40:23;11.60;;;9.77;;
63438;SDS011;49567;48.958;8.294;2022-10-19T09:42:51;11.63;;;9.15;;
63438;SDS011;49567;48.958;8.294;2022-10-19T09:48:13;11.20;;;9.80;;
63438;SDS011;49567;48.958;8.294;2022-10-19T09:50:44;9.82;;;8.77;;
63438;SDS011;49567;48.958;8.294;2022-10-19T09:53:18;10.10;;;8.13;;
63438;SDS011;49567;48.958;8.294;2022-10-19T09:58:25;11.32;;;8.18;;
63438;SDS011;49567;48.958;8.294;2022-10-19T10:00:52;11.57;;;8.63;;
63438;SDS011;49567;48.958;8.294;2022-10-19T10:05:47;11.07;;;8.40;;
63438;SDS011;49567;48.958;8.294;2022-10-19T10:08:14;12.02;;;8.13;;
63438;SDS011;49567;48.958;8.294;2022-10-19T10:10:43;13.02;;;8.13;;
63438;SDS011;49567;48.958;8.294;2022-10-19T10:13:14;10.25;;;8.50;;
63438;SDS011;49567;48.958;8.294;2022-10-19T10:15:42;8.82;;;8.00;;
63438;SDS011;49567;48.958;8.294;2022-10-19T10:18:15;9.27;;;7.83;;
63438;SDS011;49567;48.958;8.294;2022-10-19T10:20:56;10.00;;;7.50;;
63438;SDS011;49567;48.958;8.294;2022-10-19T10:23:26;10.80;;;7.30;;
63438;SDS011;49567;48.958;8.294;2022-10-19T10:25:56;13.70;;;8.00;;
63438;SDS011;49567;48.958;8.294;2022-10-19T10:28:23;8.52;;;7.68;;
63438;SDS011;49567;48.958;8.294;2022-10-19T10:31:08;10.60;;;7.95;;
63438;SDS011;49567;48.958;8.294;2022-10-19T10:33:34;9.38;;;8.38;;
63438;SDS011;49567;48.958;8.294;2022-10-19T10:36:07;9.05;;;8.15;;
63438;SDS011;49567;48.958;8.294;2022-10-19T10:38:34;12.50;;;9.27;;
63438;SDS011;49567;48.958;8.294;2022-10-19T10:41:04;11.10;;;8.80;;
63438;SDS011;49567;48.958;8.294;2022-10-19T10:43:37;24.83;;;11.05;;
63438;SDS011;49567;48.958;8.294;2022-10-19T10:46:14;9.52;;;7.88;;
63438;SDS011;49567;48.958;8.294;2022-10-19T10:48:43;8.80;;;7.90;;
63438;SDS011;49567;48.958;8.294;2022-10-19T10:51:18;9.32;;;8.23;;
63438;SDS011;49567;48.958;8.294;2022-10-19T10:53:48;11.70;;;8.73;;
63438;SDS011;49567;48.958;8.294;2022-10-19T10:56:27;8.83;;;7.77;;
63438;SDS011;49567;48.958;8.294;2022-10-19T10:58:57;8.18;;;7.30;;
63438;SDS011;49567;48.958;8.294;2022-10-19T11:01:32;10.30;;;7.47;;
63438;SDS011;49567;48.958;8.294;2022-10-19T11:04:05;17.48;;;7.50;;
63438;SDS011;49567;48.958;8.294;2022-10-19T11:06:36;9.02;;;7.57;;
63438;SDS011;49567;48.958;8.294;2022-10-19T11:09:09;7.72;;;6.93;;
63438;SDS011;49567;48.958;8.294;2022-10-19T11:11:44;7.70;;;6.78;;
63438;SDS011;49567;48.958;8.294;2022-10-19T11:17:05;11.13;;;6.32;;
63438;SDS011;49567;48.958;8.294;2022-10-19T11:19:41;7.03;;;5.78;;
63438;SDS011;49567;48.958;8.294;2022-10-19T11:22:23;6.25;;;5.53;;
63438;SDS011;49567;48.958;8.294;2022-10-19T11:27:50;5.10;;;4.60;;
63438;SDS011;49567;48.958;8.294;2022-10-19T11:30:20;8.30;;;5.10;;
63438;SDS011;49567;48.958;8.294;2022-10-19T11:35:35;5.65;;;5.15;;
63438;SDS011;49567;48.958;8.294;2022-10-19T11:38:16;5.60;;;4.95;;
63438;SDS011;49567;48.958;8.294;2022-10-19T11:40:52;5.70;;;5.10;;
63438;SDS011;49567;48.958;8.294;2022-10-19T11:43:33;11.75;;;7.07;;
63438;SDS011;49567;48.958;8.294;2022-10-19T11:46:14;5.10;;;4.70;;
63438;SDS011;49567;48.958;8.294;2022-10-19T11:51:50;11.30;;;4.68;;
63438;SDS011;49567;48.958;8.294;2022-10-19T11:57:12;5.80;;;4.80;;
63438;SDS011;49567;48.958;8.294;2022-10-19T12:08:08;10.68;;;4.88;;
63438;SDS011;49567;48.958;8.294;2022-10-19T12:10:49;5.22;;;4.75;;
63438;SDS011;49567;48.958;8.294;2022-10-19T12:13:37;20.05;;;5.25;;
63438;SDS011;49567;48.958;8.294;2022-10-19T12:16:06;4.60;;;4.20;;
63438;SDS011;49567;48.958;8.294;2022-10-19T12:21:32;6.13;;;4.10;;
63438;SDS011;49567;48.958;8.294;2022-10-19T12:24:00;5.55;;;4.00;;
63438;SDS011;49567;48.958;8.294;2022-10-19T12:26:28;5.00;;;2.80;;
63438;SDS011;49567;48.958;8.294;2022-10-19T12:28:59;3.85;;;3.47;;
63438;SDS011;49567;48.958;8.294;2022-10-19T12:31:27;6.73;;;3.20;;
63438;SDS011;49567;48.958;8.294;2022-10-19T12:34:09;3.47;;;3.17;;
63438;SDS011;49567;48.958;8.294;2022-10-19T12:42:21;3.30;;;3.00;;
63438;SDS011;49567;48.958;8.294;2022-10-19T12:44:55;2.88;;;2.67;;
63438;SDS011;49567;48.958;8.294;2022-10-19T12:48:13;3.55;;;2.75;;
63438;SDS011;49567;48.958;8.294;2022-10-19T12:51:18;2.73;;;2.47;;
63438;SDS011;49567;48.958;8.294;2022-10-19T12:53:22;5.80;;;2.05;;
63438;SDS011;49567;48.958;8.294;2022-10-19T12:56:07;3.00;;;2.03;;
63438;SDS011;49567;48.958;8.294;2022-10-19T13:01:22;4.32;;;2.22;;
63438;SDS011;49567;48.958;8.294;2022-10-19T13:04:07;3.22;;;1.85;;
63438;SDS011;49567;48.958;8.294;2022-10-19T13:06:37;3.72;;;1.77;;
63438;SDS011;49567;48.958;8.294;2022-10-19T13:09:08;2.38;;;1.95;;
63438;SDS011;49567;48.958;8.294;2022-10-19T13:36:07;5.43;;;2.13;;
63438;SDS011;49567;48.958;8.294;2022-10-19T13:41:17;3.70;;;1.98;;
63438;SDS011;49567;48.958;8.294;2022-10-19T13:43:54;3.65;;;1.77;;
63438;SDS011;49567;48.958;8.294;2022-10-19T13:54:45;2.40;;;1.58;;
63438;SDS011;49567;48.958;8.294;2022-10-19T13:57:28;3.50;;;1.58;;
63438;SDS011;49567;48.958;8.294;2022-10-19T14:00:22;7.70;;;1.70;;
63438;SDS011;49567;48.958;8.294;2022-10-19T14:10:59;2.42;;;1.50;;
63438;SDS011;49567;48.958;8.294;2022-10-19T14:13:27;1.48;;;1.38;;
63438;SDS011;49567;48.958;8.294;2022-10-19T14:15:53;2.30;;;1.30;;
63438;SDS011;49567;48.958;8.294;2022-10-19T14:18:31;1.13;;;1.13;;
63438;SDS011;49567;48.958;8.294;2022-10-19T14:21:02;1.60;;;1.45;;
63438;SDS011;49567;48.958;8.294;2022-10-19T14:23:29;3.90;;;1.50;;
63438;SDS011;49567;48.958;8.294;2022-10-19T14:25:59;1.48;;;1.25;;
63438;SDS011;49567;48.958;8.294;2022-10-19T14:28:27;2.70;;;2.20;;
63438;SDS011;49567;48.958;8.294;2022-10-19T14:30:55;3.08;;;1.65;;
63438;SDS011;49567;48.958;8.294;2022-10-19T14:33:31;2.33;;;1.45;;
63438;SDS011;49567;48.958;8.294;2022-10-19T14:36:00;2.83;;;1.73;;
63438;SDS011;49567;48.958;8.294;2022-10-19T14:38:36;1.77;;;1.67;;
63438;SDS011;49567;48.958;8.294;2022-10-19T14:41:04;4.95;;;1.65;;
63438;SDS011;49567;48.958;8.294;2022-10-19T14:43:41;3.50;;;1.45;;
63438;SDS011;49567;48.958;8.294;2022-10-19T14:48:32;1.40;;;0.97;;
63438;SDS011;49567;48.958;8.294;2022-10-19T14:50:59;2.17;;;1.30;;
63438;SDS011;49567;48.958;8.294;2022-10-19T14:56:06;3.55;;;1.33;;
63438;SDS011;49567;48.958;8.294;2022-10-19T14:58:43;4.20;;;1.40;;
63438;SDS011;49567;48.958;8.294;2022-10-19T15:01:18;1.40;;;1.30;;
63438;SDS011;49567;48.958;8.294;2022-10-19T15:03:44;4.22;;;1.60;;
63438;SDS011;49567;48.958;8.294;2022-10-19T15:06:29;1.85;;;1.35;;
63438;SDS011;49567;48.958;8.294;2022-10-19T15:08:58;2.60;;;1.60;;
63438;SDS011;49567;48.958;8.294;2022-10-19T15:11:35;2.60;;;1.55;;
63438;SDS011;49567;48.958;8.294;2022-10-19T15:14:13;5.55;;;2.28;;
63438;SDS011;49567;48.958;8.294;2022-10-19T15:16:43;2.80;;;1.38;;
63438;SDS011;49567;48.958;8.294;2022-10-19T15:24:33;7.20;;;1.90;;
63438;SDS011;49567;48.958;8.294;2022-10-19T15:27:07;1.70;;;1.60;;
63438;SDS011;49567;48.958;8.294;2022-10-19T15:29:35;2.13;;;1.65;;
63438;SDS011;49567;48.958;8.294;2022-10-19T15:32:19;1.90;;;1.80;;
63438;SDS011;49567;48.958;8.294;2022-10-19T15:34:47;2.45;;;1.90;;
63438;SDS011;49567;48.958;8.294;2022-10-19T15:37:15;2.90;;;1.67;;
63438;SDS011;49567;48.958;8.294;2022-10-19T15:39:43;1.60;;;1.50;;
63438;SDS011;49567;48.958;8.294;2022-10-19T15:45:03;2.10;;;1.90;;
63438;SDS011;49567;48.958;8.294;2022-10-19T15:50:46;3.90;;;2.00;;
63438;SDS011;49567;48.958;8.294;2022-10-19T15:53:13;1.95;;;1.95;;
63438;SDS011;49567;48.958;8.294;2022-10-19T15:55:42;2.03;;;1.90;;
63438;SDS011;49567;48.958;8.294;2022-10-19T15:58:11;4.18;;;2.28;;
63438;SDS011;49567;48.958;8.294;2022-10-19T16:00:37;13.23;;;2.72;;
63438;SDS011;49567;48.958;8.294;2022-10-19T16:03:03;2.13;;;2.07;;
63438;SDS011;49567;48.958;8.294;2022-10-19T16:05:28;2.40;;;1.95;;
63438;SDS011;49567;48.958;8.294;2022-10-19T16:07:55;2.30;;;2.10;;
63438;SDS011;49567;48.958;8.294;2022-10-19T16:10:21;1.92;;;1.85;;
63438;SDS011;49567;48.958;8.294;2022-10-19T16:12:48;2.13;;;2.00;;
63438;SDS011;49567;48.958;8.294;2022-10-19T16:15:15;6.97;;;2.57;;
63438;SDS011;49567;48.958;8.294;2022-10-19T16:17:46;3.92;;;2.40;;
63438;SDS011;49567;48.958;8.294;2022-10-19T16:20:16;3.38;;;3.08;;
63438;SDS011;49567;48.958;8.294;2022-10-19T16:22:42;11.40;;;6.23;;
63438;SDS011;49567;48.958;8.294;2022-10-19T16:25:08;7.53;;;4.65;;
63438;SDS011;49567;48.958;8.294;2022-10-19T16:27:34;7.50;;;4.43;;
63438;SDS011;49567;48.958;8.294;2022-10-19T16:29:59;4.20;;;3.87;;
63438;SDS011;49567;48.958;8.294;2022-10-19T16:32:25;3.67;;;3.37;;
63438;SDS011;49567;48.958;8.294;2022-10-19T16:34:50;20.33;;;4.53;;
63438;SDS011;49567;48.958;8.294;2022-10-19T16:37:15;7.77;;;3.10;;
63438;SDS011;49567;48.958;8.294;2022-10-19T16:39:41;6.25;;;2.85;;
63438;SDS011;49567;48.958;8.294;2022-10-19T16:42:06;3.20;;;2.90;;
63438;SDS011;49567;48.958;8.294;2022-10-19T16:44:31;6.67;;;3.17;;
63438;SDS011;49567;48.958;8.294;2022-10-19T16:46:57;6.10;;;3.30;;